sensor_id;sensor_type;location;lat;lon;timestamp;temperature;humidity
9973;DHT22;5027;53.560;10.062;2023-05-09T00:00:54;17.10;85.00
9973;DHT22;5027;53.560;10.062;2023-05-09T00:03:21;17.10;85.00
9973;DHT22;5027;53.560;10.062;2023-05-09T00:05:48;17.20;84.70
9973;DHT22;5027;53.560;10.062;2023-05-09T00:08:14;17.10;84.90
9973;DHT22;5027;53.560;10.062;2023-05-09T00:10:42;17.10;84.90
9973;DHT22;5027;53.560;10.062;2023-05-09T00:13:09;17.10;85.20
9973;DHT22;5027;53.560;10.062;2023-05-09T00:15:35;17.00;85.40
9973;DHT22;5027;53.560;10.062;2023-05-09T00:18:02;17.10;85.40
9973;DHT22;5027;53.560;10.062;2023-05-09T00:20:29;17.10;85.60
9973;DHT22;5027;53.560;10.062;2023-05-09T00:22:55;17.10;85.60
9973;DHT22;5027;53.560;10.062;2023-05-09T00:25:22;17.00;85.50
9973;DHT22;5027;53.560;10.062;2023-05-09T00:27:49;17.10;85.60
9973;DHT22;5027;53.560;10.062;2023-05-09T00:30:16;17.10;85.60
9973;DHT22;5027;53.560;10.062;2023-05-09T00:32:42;17.10;85.60
9973;DHT22;5027;53.560;10.062;2023-05-09T00:35:09;17.00;85.50
9973;DHT22;5027;53.560;10.062;2023-05-09T00:37:36;16.90;86.10
9973;DHT22;5027;53.560;10.062;2023-05-09T00:40:04;17.00;85.90
9973;DHT22;5027;53.560;10.062;2023-05-09T00:42:32;17.00;85.70
9973;DHT22;5027;53.560;10.062;2023-05-09T00:44:59;17.00;86.10
9973;DHT22;5027;53.560;10.062;2023-05-09T00:47:27;17.00;86.10
9973;DHT22;5027;53.560;10.062;2023-05-09T00:49:56;17.00;86.00
9973;DHT22;5027;53.560;10.062;2023-05-09T00:52:24;17.00;86.20
9973;DHT22;5027;53.560;10.062;2023-05-09T00:54:54;17.00;86.10
9973;DHT22;5027;53.560;10.062;2023-05-09T00:57:22;16.90;86.30
9973;DHT22;5027;53.560;10.062;2023-05-09T00:59:49;16.90;86.00
9973;DHT22;5027;53.560;10.062;2023-05-09T01:02:18;16.80;86.50
9973;DHT22;5027;53.560;10.062;2023-05-09T01:04:46;16.80;86.50
9973;DHT22;5027;53.560;10.062;2023-05-09T01:07:34;16.80;86.40
9973;DHT22;5027;53.560;10.062;2023-05-09T01:13:21;16.90;86.70
9973;DHT22;5027;53.560;10.062;2023-05-09T01:15:58;16.90;86.60
9973;DHT22;5027;53.560;10.062;2023-05-09T01:18:48;16.90;86.90
9973;DHT22;5027;53.560;10.062;2023-05-09T01:21:20;16.80;86.90
9973;DHT22;5027;53.560;10.062;2023-05-09T01:27:02;16.80;87.20
9973;DHT22;5027;53.560;10.062;2023-05-09T01:29:46;16.80;87.10
9973;DHT22;5027;53.560;10.062;2023-05-09T01:32:16;16.80;87.20
9973;DHT22;5027;53.560;10.062;2023-05-09T01:34:44;16.80;87.30
9973;DHT22;5027;53.560;10.062;2023-05-09T01:37:13;16.90;87.20
9973;DHT22;5027;53.560;10.062;2023-05-09T01:39:45;16.80;87.30
9973;DHT22;5027;53.560;10.062;2023-05-09T01:42:13;16.90;87.30
9973;DHT22;5027;53.560;10.062;2023-05-09T01:44:43;16.80;87.40
9973;DHT22;5027;53.560;10.062;2023-05-09T01:47:12;16.80;87.50
9973;DHT22;5027;53.560;10.062;2023-05-09T01:49:42;16.80;87.70
9973;DHT22;5027;53.560;10.062;2023-05-09T01:52:12;16.70;87.30
9973;DHT22;5027;53.560;10.062;2023-05-09T01:54:40;16.70;87.90
9973;DHT22;5027;53.560;10.062;2023-05-09T01:57:10;16.70;87.90
9973;DHT22;5027;53.560;10.062;2023-05-09T01:59:39;16.70;87.80
9973;DHT22;5027;53.560;10.062;2023-05-09T02:02:07;16.70;88.10
9973;DHT22;5027;53.560;10.062;2023-05-09T02:04:35;16.70;88.00
9973;DHT22;5027;53.560;10.062;2023-05-09T02:07:03;16.70;88.10
9973;DHT22;5027;53.560;10.062;2023-05-09T02:09:31;16.70;88.20
9973;DHT22;5027;53.560;10.062;2023-05-09T02:11:58;16.60;88.60
9973;DHT22;5027;53.560;10.062;2023-05-09T02:14:25;16.60;88.40
9973;DHT22;5027;53.560;10.062;2023-05-09T02:16:52;16.70;88.60
9973;DHT22;5027;53.560;10.062;2023-05-09T02:19:19;16.70;88.50
9973;DHT22;5027;53.560;10.062;2023-05-09T02:21:46;16.70;88.50
9973;DHT22;5027;53.560;10.062;2023-05-09T02:24:13;16.60;88.50
9973;DHT22;5027;53.560;10.062;2023-05-09T02:26:40;16.70;88.50
9973;DHT22;5027;53.560;10.062;2023-05-09T02:29:07;16.60;88.80
9973;DHT22;5027;53.560;10.062;2023-05-09T02:31:39;16.40;88.80
9973;DHT22;5027;53.560;10.062;2023-05-09T02:34:07;16.50;89.20
9973;DHT22;5027;53.560;10.062;2023-05-09T02:36:34;16.50;89.10
9973;DHT22;5027;53.560;10.062;2023-05-09T02:39:01;16.50;89.30
9973;DHT22;5027;53.560;10.062;2023-05-09T02:41:29;16.40;89.40
9973;DHT22;5027;53.560;10.062;2023-05-09T02:43:57;16.50;89.40
9973;DHT22;5027;53.560;10.062;2023-05-09T02:46:25;16.50;89.40
9973;DHT22;5027;53.560;10.062;2023-05-09T02:48:52;16.50;89.70
9973;DHT22;5027;53.560;10.062;2023-05-09T02:51:18;16.40;89.60
9973;DHT22;5027;53.560;10.062;2023-05-09T02:53:45;16.40;90.00
9973;DHT22;5027;53.560;10.062;2023-05-09T02:56:12;16.40;90.10
9973;DHT22;5027;53.560;10.062;2023-05-09T02:58:39;16.30;90.00
9973;DHT22;5027;53.560;10.062;2023-05-09T03:01:05;16.40;90.00
9973;DHT22;5027;53.560;10.062;2023-05-09T03:03:32;16.40;90.10
9973;DHT22;5027;53.560;10.062;2023-05-09T03:06:02;16.40;90.10
9973;DHT22;5027;53.560;10.062;2023-05-09T03:08:29;16.40;90.20
9973;DHT22;5027;53.560;10.062;2023-05-09T03:10:56;16.30;90.10
9973;DHT22;5027;53.560;10.062;2023-05-09T03:13:23;16.20;90.10
9973;DHT22;5027;53.560;10.062;2023-05-09T03:15:50;16.20;90.10
9973;DHT22;5027;53.560;10.062;2023-05-09T03:18:17;16.20;90.40
9973;DHT22;5027;53.560;10.062;2023-05-09T03:20:44;16.20;90.40
9973;DHT22;5027;53.560;10.062;2023-05-09T03:23:11;16.20;90.40
9973;DHT22;5027;53.560;10.062;2023-05-09T03:25:38;16.30;90.40
9973;DHT22;5027;53.560;10.062;2023-05-09T03:28:05;16.20;90.50
9973;DHT22;5027;53.560;10.062;2023-05-09T03:30:31;16.20;90.60
9973;DHT22;5027;53.560;10.062;2023-05-09T03:32:59;16.20;90.40
9973;DHT22;5027;53.560;10.062;2023-05-09T03:35:26;16.30;90.50
9973;DHT22;5027;53.560;10.062;2023-05-09T03:37:54;16.30;90.50
9973;DHT22;5027;53.560;10.062;2023-05-09T03:40:20;16.30;90.50
9973;DHT22;5027;53.560;10.062;2023-05-09T03:42:54;16.30;90.50
9973;DHT22;5027;53.560;10.062;2023-05-09T03:45:21;16.20;90.50
9973;DHT22;5027;53.560;10.062;2023-05-09T03:47:47;16.30;90.60
9973;DHT22;5027;53.560;10.062;2023-05-09T03:50:14;16.30;90.70
9973;DHT22;5027;53.560;10.062;2023-05-09T03:52:42;16.20;90.60
9973;DHT22;5027;53.560;10.062;2023-05-09T03:55:10;16.20;91.00
9973;DHT22;5027;53.560;10.062;2023-05-09T03:57:37;16.10;90.80
9973;DHT22;5027;53.560;10.062;2023-05-09T04:00:05;16.10;91.00
9973;DHT22;5027;53.560;10.062;2023-05-09T04:02:39;16.10;90.80
9973;DHT22;5027;53.560;10.062;2023-05-09T04:05:09;16.20;90.90
9973;DHT22;5027;53.560;10.062;2023-05-09T04:07:37;16.20;90.90
9973;DHT22;5027;53.560;10.062;2023-05-09T04:10:04;16.10;90.90
9973;DHT22;5027;53.560;10.062;2023-05-09T04:12:31;16.10;91.00
9973;DHT22;5027;53.560;10.062;2023-05-09T04:14:58;16.10;90.90
9973;DHT22;5027;53.560;10.062;2023-05-09T04:17:25;16.10;91.00
9973;DHT22;5027;53.560;10.062;2023-05-09T04:19:53;15.90;91.00
9973;DHT22;5027;53.560;10.062;2023-05-09T04:22:20;15.90;91.30
9973;DHT22;5027;53.560;10.062;2023-05-09T04:24:46;16.00;91.20
9973;DHT22;5027;53.560;10.062;2023-05-09T04:27:13;16.00;91.30
9973;DHT22;5027;53.560;10.062;2023-05-09T04:29:40;16.00;91.20
9973;DHT22;5027;53.560;10.062;2023-05-09T04:32:08;16.00;91.20
9973;DHT22;5027;53.560;10.062;2023-05-09T04:34:35;15.90;91.30
9973;DHT22;5027;53.560;10.062;2023-05-09T04:37:11;16.00;91.40
9973;DHT22;5027;53.560;10.062;2023-05-09T04:39:41;16.00;91.50
9973;DHT22;5027;53.560;10.062;2023-05-09T04:42:15;16.00;91.50
9973;DHT22;5027;53.560;10.062;2023-05-09T04:44:42;16.00;91.50
9973;DHT22;5027;53.560;10.062;2023-05-09T04:47:08;15.80;91.50
9973;DHT22;5027;53.560;10.062;2023-05-09T04:49:36;15.80;91.50
9973;DHT22;5027;53.560;10.062;2023-05-09T04:52:03;15.80;91.70
9973;DHT22;5027;53.560;10.062;2023-05-09T04:54:29;15.90;91.60
9973;DHT22;5027;53.560;10.062;2023-05-09T04:56:56;16.00;91.60
9973;DHT22;5027;53.560;10.062;2023-05-09T04:59:40;16.00;92.00
9973;DHT22;5027;53.560;10.062;2023-05-09T05:02:09;15.80;91.60
9973;DHT22;5027;53.560;10.062;2023-05-09T05:04:36;15.80;91.90
9973;DHT22;5027;53.560;10.062;2023-05-09T05:07:04;15.80;91.80
9973;DHT22;5027;53.560;10.062;2023-05-09T05:09:31;15.70;91.90
9973;DHT22;5027;53.560;10.062;2023-05-09T05:11:58;15.70;92.00
9973;DHT22;5027;53.560;10.062;2023-05-09T05:14:30;15.60;92.10
9973;DHT22;5027;53.560;10.062;2023-05-09T05:16:57;15.60;92.10
9973;DHT22;5027;53.560;10.062;2023-05-09T05:19:23;15.70;92.20
9973;DHT22;5027;53.560;10.062;2023-05-09T05:21:50;15.70;92.00
9973;DHT22;5027;53.560;10.062;2023-05-09T05:24:17;15.70;92.20
9973;DHT22;5027;53.560;10.062;2023-05-09T05:26:45;15.70;92.30
9973;DHT22;5027;53.560;10.062;2023-05-09T05:29:11;15.70;92.30
9973;DHT22;5027;53.560;10.062;2023-05-09T05:31:38;15.70;92.20
9973;DHT22;5027;53.560;10.062;2023-05-09T05:34:05;15.80;92.30
9973;DHT22;5027;53.560;10.062;2023-05-09T05:36:32;15.80;92.40
9973;DHT22;5027;53.560;10.062;2023-05-09T05:38:58;15.70;92.20
9973;DHT22;5027;53.560;10.062;2023-05-09T05:41:25;15.80;92.30
9973;DHT22;5027;53.560;10.062;2023-05-09T05:43:56;15.70;92.30
9973;DHT22;5027;53.560;10.062;2023-05-09T05:46:23;15.70;92.40
9973;DHT22;5027;53.560;10.062;2023-05-09T05:48:50;15.60;92.50
9973;DHT22;5027;53.560;10.062;2023-05-09T05:51:17;15.70;92.40
9973;DHT22;5027;53.560;10.062;2023-05-09T05:53:44;15.60;92.50
9973;DHT22;5027;53.560;10.062;2023-05-09T05:56:11;15.70;92.70
9973;DHT22;5027;53.560;10.062;2023-05-09T05:58:38;15.80;92.50
9973;DHT22;5027;53.560;10.062;2023-05-09T06:01:05;15.70;92.50
9973;DHT22;5027;53.560;10.062;2023-05-09T06:03:33;15.80;92.80
9973;DHT22;5027;53.560;10.062;2023-05-09T06:06:03;15.70;92.80
9973;DHT22;5027;53.560;10.062;2023-05-09T06:08:30;15.70;92.80
9973;DHT22;5027;53.560;10.062;2023-05-09T06:10:59;15.70;92.80
9973;DHT22;5027;53.560;10.062;2023-05-09T06:13:25;15.70;92.70
9973;DHT22;5027;53.560;10.062;2023-05-09T06:15:59;15.70;92.80
9973;DHT22;5027;53.560;10.062;2023-05-09T06:18:43;15.80;92.90
9973;DHT22;5027;53.560;10.062;2023-05-09T06:21:10;15.60;92.90
9973;DHT22;5027;53.560;10.062;2023-05-09T06:23:38;15.60;93.10
9973;DHT22;5027;53.560;10.062;2023-05-09T06:26:22;15.60;93.10
9973;DHT22;5027;53.560;10.062;2023-05-09T06:28:49;15.70;93.10
9973;DHT22;5027;53.560;10.062;2023-05-09T06:31:16;15.70;93.10
9973;DHT22;5027;53.560;10.062;2023-05-09T06:33:43;15.60;93.50
9973;DHT22;5027;53.560;10.062;2023-05-09T06:36:09;15.60;93.50
9973;DHT22;5027;53.560;10.062;2023-05-09T06:38:37;15.70;93.40
9973;DHT22;5027;53.560;10.062;2023-05-09T06:41:03;15.80;93.30
9973;DHT22;5027;53.560;10.062;2023-05-09T06:43:30;15.90;93.30
9973;DHT22;5027;53.560;10.062;2023-05-09T06:45:57;15.90;93.40
9973;DHT22;5027;53.560;10.062;2023-05-09T06:48:23;16.00;93.30
9973;DHT22;5027;53.560;10.062;2023-05-09T06:50:50;16.00;93.50
9973;DHT22;5027;53.560;10.062;2023-05-09T06:53:17;16.00;93.50
9973;DHT22;5027;53.560;10.062;2023-05-09T06:55:43;15.80;93.60
9973;DHT22;5027;53.560;10.062;2023-05-09T06:58:10;15.70;93.70
9973;DHT22;5027;53.560;10.062;2023-05-09T07:00:37;15.80;94.00
9973;DHT22;5027;53.560;10.062;2023-05-09T07:03:04;16.00;94.00
9973;DHT22;5027;53.560;10.062;2023-05-09T07:05:33;16.10;93.80
9973;DHT22;5027;53.560;10.062;2023-05-09T07:08:00;16.20;93.90
9973;DHT22;5027;53.560;10.062;2023-05-09T07:10:27;16.20;93.80
9973;DHT22;5027;53.560;10.062;2023-05-09T07:12:53;16.20;93.80
9973;DHT22;5027;53.560;10.062;2023-05-09T07:15:20;16.10;93.70
9973;DHT22;5027;53.560;10.062;2023-05-09T07:18:06;16.10;93.70
9973;DHT22;5027;53.560;10.062;2023-05-09T07:20:33;16.20;94.00
9973;DHT22;5027;53.560;10.062;2023-05-09T07:23:01;16.20;93.80
9973;DHT22;5027;53.560;10.062;2023-05-09T07:25:29;16.30;93.90
9973;DHT22;5027;53.560;10.062;2023-05-09T07:27:56;16.40;93.90
9973;DHT22;5027;53.560;10.062;2023-05-09T07:30:22;16.40;93.90
9973;DHT22;5027;53.560;10.062;2023-05-09T07:32:49;16.40;94.00
9973;DHT22;5027;53.560;10.062;2023-05-09T07:35:18;16.50;94.00
9973;DHT22;5027;53.560;10.062;2023-05-09T07:37:44;16.60;94.30
9973;DHT22;5027;53.560;10.062;2023-05-09T07:40:11;16.70;94.10
9973;DHT22;5027;53.560;10.062;2023-05-09T07:42:38;16.60;93.90
9973;DHT22;5027;53.560;10.062;2023-05-09T07:45:06;16.80;96.50
9973;DHT22;5027;53.560;10.062;2023-05-09T07:47:32;17.00;94.00
9973;DHT22;5027;53.560;10.062;2023-05-09T07:49:59;17.00;94.20
9973;DHT22;5027;53.560;10.062;2023-05-09T07:52:26;16.90;93.70
9973;DHT22;5027;53.560;10.062;2023-05-09T07:54:52;16.90;93.80
9973;DHT22;5027;53.560;10.062;2023-05-09T07:57:20;17.00;95.40
9973;DHT22;5027;53.560;10.062;2023-05-09T07:59:46;17.00;93.60
9973;DHT22;5027;53.560;10.062;2023-05-09T08:02:13;17.10;93.70
9973;DHT22;5027;53.560;10.062;2023-05-09T08:04:40;17.10;93.80
9973;DHT22;5027;53.560;10.062;2023-05-09T08:07:07;17.10;93.50
9973;DHT22;5027;53.560;10.062;2023-05-09T08:09:34;17.10;94.20
9973;DHT22;5027;53.560;10.062;2023-05-09T08:12:01;17.10;93.30
9973;DHT22;5027;53.560;10.062;2023-05-09T08:14:28;17.20;93.60
9973;DHT22;5027;53.560;10.062;2023-05-09T08:16:55;17.20;93.60
9973;DHT22;5027;53.560;10.062;2023-05-09T08:19:21;17.30;93.70
9973;DHT22;5027;53.560;10.062;2023-05-09T08:21:52;17.40;93.50
9973;DHT22;5027;53.560;10.062;2023-05-09T08:24:18;17.40;93.50
9973;DHT22;5027;53.560;10.062;2023-05-09T08:26:45;17.40;93.60
9973;DHT22;5027;53.560;10.062;2023-05-09T08:29:12;17.50;93.50
9973;DHT22;5027;53.560;10.062;2023-05-09T08:31:39;17.50;93.20
9973;DHT22;5027;53.560;10.062;2023-05-09T08:34:06;17.50;93.40
9973;DHT22;5027;53.560;10.062;2023-05-09T08:36:33;17.50;93.40
9973;DHT22;5027;53.560;10.062;2023-05-09T08:38:59;17.50;93.40
9973;DHT22;5027;53.560;10.062;2023-05-09T08:41:26;17.50;93.60
9973;DHT22;5027;53.560;10.062;2023-05-09T08:43:56;17.60;93.70
9973;DHT22;5027;53.560;10.062;2023-05-09T08:46:35;17.60;94.10
9973;DHT22;5027;53.560;10.062;2023-05-09T08:49:04;17.70;94.10
9973;DHT22;5027;53.560;10.062;2023-05-09T08:51:34;17.70;93.30
9973;DHT22;5027;53.560;10.062;2023-05-09T08:54:01;17.70;93.20
9973;DHT22;5027;53.560;10.062;2023-05-09T08:56:29;17.70;93.30
9973;DHT22;5027;53.560;10.062;2023-05-09T08:58:56;17.70;93.40
9973;DHT22;5027;53.560;10.062;2023-05-09T09:01:24;17.70;93.60
9973;DHT22;5027;53.560;10.062;2023-05-09T09:03:52;17.80;93.20
9973;DHT22;5027;53.560;10.062;2023-05-09T09:06:20;17.80;92.80
9973;DHT22;5027;53.560;10.062;2023-05-09T09:08:48;17.90;93.30
9973;DHT22;5027;53.560;10.062;2023-05-09T09:11:16;17.90;93.00
9973;DHT22;5027;53.560;10.062;2023-05-09T09:13:45;18.00;93.30
9973;DHT22;5027;53.560;10.062;2023-05-09T09:16:19;18.00;93.30
9973;DHT22;5027;53.560;10.062;2023-05-09T09:18:47;18.10;94.00
9973;DHT22;5027;53.560;10.062;2023-05-09T09:21:15;18.10;92.70
9973;DHT22;5027;53.560;10.062;2023-05-09T09:23:46;18.30;92.10
9973;DHT22;5027;53.560;10.062;2023-05-09T09:26:13;18.50;92.40
9973;DHT22;5027;53.560;10.062;2023-05-09T09:28:40;18.50;92.30
9973;DHT22;5027;53.560;10.062;2023-05-09T09:31:26;18.40;92.10
9973;DHT22;5027;53.560;10.062;2023-05-09T09:34:01;18.50;92.40
9973;DHT22;5027;53.560;10.062;2023-05-09T09:36:31;18.50;93.40
9973;DHT22;5027;53.560;10.062;2023-05-09T09:39:00;18.50;93.20
9973;DHT22;5027;53.560;10.062;2023-05-09T09:41:33;18.70;92.00
9973;DHT22;5027;53.560;10.062;2023-05-09T09:44:07;18.80;92.20
9973;DHT22;5027;53.560;10.062;2023-05-09T09:46:47;18.90;92.70
9973;DHT22;5027;53.560;10.062;2023-05-09T09:49:16;18.90;91.70
9973;DHT22;5027;53.560;10.062;2023-05-09T09:51:43;18.80;92.40
9973;DHT22;5027;53.560;10.062;2023-05-09T09:54:11;18.90;90.70
9973;DHT22;5027;53.560;10.062;2023-05-09T09:56:39;19.00;91.50
9973;DHT22;5027;53.560;10.062;2023-05-09T09:59:13;19.30;90.20
9973;DHT22;5027;53.560;10.062;2023-05-09T10:02:01;19.30;90.20
9973;DHT22;5027;53.560;10.062;2023-05-09T10:04:35;19.40;88.80
9973;DHT22;5027;53.560;10.062;2023-05-09T10:07:04;19.40;90.00
9973;DHT22;5027;53.560;10.062;2023-05-09T10:09:33;19.30;89.50
9973;DHT22;5027;53.560;10.062;2023-05-09T10:12:05;19.30;90.60
9973;DHT22;5027;53.560;10.062;2023-05-09T10:14:33;19.30;91.00
9973;DHT22;5027;53.560;10.062;2023-05-09T10:17:03;19.20;90.80
9973;DHT22;5027;53.560;10.062;2023-05-09T10:19:31;19.10;91.60
9973;DHT22;5027;53.560;10.062;2023-05-09T10:22:02;19.20;93.50
9973;DHT22;5027;53.560;10.062;2023-05-09T10:24:36;19.00;92.70
9973;DHT22;5027;53.560;10.062;2023-05-09T10:27:09;19.30;91.10
9973;DHT22;5027;53.560;10.062;2023-05-09T10:29:40;19.60;89.60
9973;DHT22;5027;53.560;10.062;2023-05-09T10:32:37;19.60;90.40
9973;DHT22;5027;53.560;10.062;2023-05-09T10:35:05;19.60;91.50
9973;DHT22;5027;53.560;10.062;2023-05-09T10:37:34;19.40;91.10
9973;DHT22;5027;53.560;10.062;2023-05-09T10:40:03;19.50;91.40
9973;DHT22;5027;53.560;10.062;2023-05-09T10:42:30;19.70;91.80
9973;DHT22;5027;53.560;10.062;2023-05-09T10:44:57;19.60;91.30
9973;DHT22;5027;53.560;10.062;2023-05-09T10:47:27;19.40;93.50
9973;DHT22;5027;53.560;10.062;2023-05-09T10:49:55;19.20;92.30
9973;DHT22;5027;53.560;10.062;2023-05-09T10:52:22;19.50;90.70
9973;DHT22;5027;53.560;10.062;2023-05-09T10:54:59;19.20;91.80
9973;DHT22;5027;53.560;10.062;2023-05-09T10:57:28;19.20;92.30
9973;DHT22;5027;53.560;10.062;2023-05-09T10:59:56;19.70;91.50
9973;DHT22;5027;53.560;10.062;2023-05-09T11:02:23;19.80;93.10
9973;DHT22;5027;53.560;10.062;2023-05-09T11:05:15;19.70;91.60
9973;DHT22;5027;53.560;10.062;2023-05-09T11:07:42;19.40;91.70
9973;DHT22;5027;53.560;10.062;2023-05-09T11:10:16;19.60;91.40
9973;DHT22;5027;53.560;10.062;2023-05-09T11:12:57;20.00;89.10
9973;DHT22;5027;53.560;10.062;2023-05-09T11:15:25;19.90;92.40
9973;DHT22;5027;53.560;10.062;2023-05-09T11:18:06;19.70;90.60
9973;DHT22;5027;53.560;10.062;2023-05-09T11:20:34;19.70;90.10
9973;DHT22;5027;53.560;10.062;2023-05-09T11:23:05;19.60;94.20
9973;DHT22;5027;53.560;10.062;2023-05-09T11:25:34;20.10;87.30
9973;DHT22;5027;53.560;10.062;2023-05-09T11:28:01;20.40;89.30
9973;DHT22;5027;53.560;10.062;2023-05-09T11:30:38;20.10;90.00
9973;DHT22;5027;53.560;10.062;2023-05-09T11:33:21;19.80;90.60
9973;DHT22;5027;53.560;10.062;2023-05-09T11:39:08;19.50;91.40
9973;DHT22;5027;53.560;10.062;2023-05-09T11:41:43;19.60;89.70
9973;DHT22;5027;53.560;10.062;2023-05-09T11:44:19;20.10;87.70
9973;DHT22;5027;53.560;10.062;2023-05-09T11:46:47;20.50;86.60
9973;DHT22;5027;53.560;10.062;2023-05-09T11:49:14;20.20;91.60
9973;DHT22;5027;53.560;10.062;2023-05-09T11:51:41;19.80;91.40
9973;DHT22;5027;53.560;10.062;2023-05-09T11:54:08;20.10;89.10
9973;DHT22;5027;53.560;10.062;2023-05-09T11:56:38;20.20;87.20
9973;DHT22;5027;53.560;10.062;2023-05-09T11:59:06;20.30;90.00
9973;DHT22;5027;53.560;10.062;2023-05-09T12:01:34;20.60;85.70
9973;DHT22;5027;53.560;10.062;2023-05-09T12:04:01;20.60;87.00
9973;DHT22;5027;53.560;10.062;2023-05-09T12:06:28;20.10;90.00
9973;DHT22;5027;53.560;10.062;2023-05-09T12:08:55;20.00;90.10
9973;DHT22;5027;53.560;10.062;2023-05-09T12:11:23;20.80;84.50
9973;DHT22;5027;53.560;10.062;2023-05-09T12:13:51;21.30;87.30
9973;DHT22;5027;53.560;10.062;2023-05-09T12:16:18;20.90;86.50
9973;DHT22;5027;53.560;10.062;2023-05-09T12:18:49;20.70;91.60
9973;DHT22;5027;53.560;10.062;2023-05-09T12:21:17;20.60;86.60
9973;DHT22;5027;53.560;10.062;2023-05-09T12:23:47;20.60;86.60
9973;DHT22;5027;53.560;10.062;2023-05-09T12:26:18;21.10;83.90
9973;DHT22;5027;53.560;10.062;2023-05-09T12:28:47;20.80;86.30
9973;DHT22;5027;53.560;10.062;2023-05-09T12:31:15;20.90;85.30
9973;DHT22;5027;53.560;10.062;2023-05-09T12:33:42;21.30;83.80
9973;DHT22;5027;53.560;10.062;2023-05-09T12:36:11;21.40;84.70
9973;DHT22;5027;53.560;10.062;2023-05-09T12:38:38;21.30;87.50
9973;DHT22;5027;53.560;10.062;2023-05-09T12:41:07;20.70;89.60
9973;DHT22;5027;53.560;10.062;2023-05-09T12:43:48;20.90;86.30
9973;DHT22;5027;53.560;10.062;2023-05-09T12:46:19;20.80;88.00
9973;DHT22;5027;53.560;10.062;2023-05-09T12:48:46;20.80;87.10
9973;DHT22;5027;53.560;10.062;2023-05-09T12:51:19;20.70;88.50
9973;DHT22;5027;53.560;10.062;2023-05-09T12:53:46;20.60;86.90
9973;DHT22;5027;53.560;10.062;2023-05-09T12:56:18;20.70;86.40
9973;DHT22;5027;53.560;10.062;2023-05-09T12:58:52;20.70;90.50
9973;DHT22;5027;53.560;10.062;2023-05-09T13:01:21;20.40;88.90
9973;DHT22;5027;53.560;10.062;2023-05-09T13:04:00;20.40;88.10
9973;DHT22;5027;53.560;10.062;2023-05-09T13:06:26;20.30;91.40
9973;DHT22;5027;53.560;10.062;2023-05-09T13:09:01;20.70;87.70
9973;DHT22;5027;53.560;10.062;2023-05-09T13:11:28;20.40;91.40
9973;DHT22;5027;53.560;10.062;2023-05-09T13:13:55;20.60;88.00
9973;DHT22;5027;53.560;10.062;2023-05-09T13:16:22;20.80;86.50
9973;DHT22;5027;53.560;10.062;2023-05-09T13:18:49;20.60;89.40
9973;DHT22;5027;53.560;10.062;2023-05-09T13:21:16;20.80;85.00
9973;DHT22;5027;53.560;10.062;2023-05-09T13:23:42;21.00;86.00
9973;DHT22;5027;53.560;10.062;2023-05-09T13:26:10;20.60;88.70
9973;DHT22;5027;53.560;10.062;2023-05-09T13:28:37;20.30;90.40
9973;DHT22;5027;53.560;10.062;2023-05-09T13:31:04;20.30;87.50
9973;DHT22;5027;53.560;10.062;2023-05-09T13:33:30;20.80;85.50
9973;DHT22;5027;53.560;10.062;2023-05-09T13:35:57;20.70;87.30
9973;DHT22;5027;53.560;10.062;2023-05-09T13:38:24;20.70;86.10
9973;DHT22;5027;53.560;10.062;2023-05-09T13:40:51;20.80;86.70
9973;DHT22;5027;53.560;10.062;2023-05-09T13:43:17;20.90;85.10
9973;DHT22;5027;53.560;10.062;2023-05-09T13:45:44;21.10;84.20
9973;DHT22;5027;53.560;10.062;2023-05-09T13:48:11;21.10;84.40
9973;DHT22;5027;53.560;10.062;2023-05-09T13:50:37;21.20;84.40
9973;DHT22;5027;53.560;10.062;2023-05-09T13:53:04;21.00;84.40
9973;DHT22;5027;53.560;10.062;2023-05-09T13:55:31;21.20;84.40
9973;DHT22;5027;53.560;10.062;2023-05-09T13:57:59;21.20;83.90
9973;DHT22;5027;53.560;10.062;2023-05-09T14:00:27;21.10;84.30
9973;DHT22;5027;53.560;10.062;2023-05-09T14:02:53;20.90;85.20
9973;DHT22;5027;53.560;10.062;2023-05-09T14:05:23;20.90;84.70
9973;DHT22;5027;53.560;10.062;2023-05-09T14:08:01;21.10;84.50
9973;DHT22;5027;53.560;10.062;2023-05-09T14:10:36;20.70;86.10
9973;DHT22;5027;53.560;10.062;2023-05-09T14:13:25;20.80;83.90
9973;DHT22;5027;53.560;10.062;2023-05-09T14:16:03;21.10;83.00
9973;DHT22;5027;53.560;10.062;2023-05-09T14:18:34;21.10;82.60
9973;DHT22;5027;53.560;10.062;2023-05-09T14:21:19;21.00;83.40
9973;DHT22;5027;53.560;10.062;2023-05-09T14:23:54;21.00;83.30
9973;DHT22;5027;53.560;10.062;2023-05-09T14:26:35;21.00;83.50
9973;DHT22;5027;53.560;10.062;2023-05-09T14:29:18;21.20;82.70
9973;DHT22;5027;53.560;10.062;2023-05-09T14:31:50;20.70;86.70
9973;DHT22;5027;53.560;10.062;2023-05-09T14:34:29;20.80;84.60
9973;DHT22;5027;53.560;10.062;2023-05-09T14:36:58;20.70;85.80
9973;DHT22;5027;53.560;10.062;2023-05-09T14:39:41;20.90;84.10
9973;DHT22;5027;53.560;10.062;2023-05-09T14:42:41;20.80;84.00
9973;DHT22;5027;53.560;10.062;2023-05-09T14:45:24;20.80;84.40
9973;DHT22;5027;53.560;10.062;2023-05-09T14:48:23;20.70;83.90
9973;DHT22;5027;53.560;10.062;2023-05-09T14:50:57;20.70;84.70
9973;DHT22;5027;53.560;10.062;2023-05-09T14:53:36;20.60;85.70
9973;DHT22;5027;53.560;10.062;2023-05-09T14:56:22;20.70;84.90
9973;DHT22;5027;53.560;10.062;2023-05-09T14:59:31;20.70;86.00
9973;DHT22;5027;53.560;10.062;2023-05-09T15:02:09;20.70;82.60
9973;DHT22;5027;53.560;10.062;2023-05-09T15:05:09;20.80;82.50
9973;DHT22;5027;53.560;10.062;2023-05-09T15:07:38;20.90;81.50
9973;DHT22;5027;53.560;10.062;2023-05-09T15:10:12;20.90;82.00
9973;DHT22;5027;53.560;10.062;2023-05-09T15:13:00;20.90;82.50
9973;DHT22;5027;53.560;10.062;2023-05-09T15:15:31;20.90;82.10
9973;DHT22;5027;53.560;10.062;2023-05-09T15:18:33;20.80;82.70
9973;DHT22;5027;53.560;10.062;2023-05-09T15:21:14;21.00;80.30
9973;DHT22;5027;53.560;10.062;2023-05-09T15:23:45;20.90;81.40
9973;DHT22;5027;53.560;10.062;2023-05-09T15:26:15;21.00;79.50
9973;DHT22;5027;53.560;10.062;2023-05-09T15:28:42;20.90;80.30
9973;DHT22;5027;53.560;10.062;2023-05-09T15:31:10;20.90;81.30
9973;DHT22;5027;53.560;10.062;2023-05-09T15:33:37;20.90;81.30
9973;DHT22;5027;53.560;10.062;2023-05-09T15:36:04;20.90;81.30
9973;DHT22;5027;53.560;10.062;2023-05-09T15:38:33;20.70;82.80
9973;DHT22;5027;53.560;10.062;2023-05-09T15:41:00;20.50;87.60
9973;DHT22;5027;53.560;10.062;2023-05-09T15:43:26;20.50;82.20
9973;DHT22;5027;53.560;10.062;2023-05-09T15:45:53;20.40;83.60
9973;DHT22;5027;53.560;10.062;2023-05-09T15:48:20;20.50;82.30
9973;DHT22;5027;53.560;10.062;2023-05-09T15:50:48;20.30;89.70
9973;DHT22;5027;53.560;10.062;2023-05-09T15:53:15;20.30;81.80
9973;DHT22;5027;53.560;10.062;2023-05-09T15:55:42;20.50;81.20
9973;DHT22;5027;53.560;10.062;2023-05-09T15:58:09;20.50;86.30
9973;DHT22;5027;53.560;10.062;2023-05-09T16:00:36;20.40;87.00
9973;DHT22;5027;53.560;10.062;2023-05-09T16:03:03;20.30;84.30
9973;DHT22;5027;53.560;10.062;2023-05-09T16:05:30;20.30;80.70
9973;DHT22;5027;53.560;10.062;2023-05-09T16:07:56;20.50;79.50
9973;DHT22;5027;53.560;10.062;2023-05-09T16:10:23;20.40;83.50